createdAt,value
2023-04-20T00:00:53.582Z,9.93
2023-04-20T00:03:22.096Z,8.50
2023-04-20T00:05:52.357Z,10.10
2023-04-20T00:08:19.848Z,11.25
2023-04-20T00:10:47.277Z,9.52
2023-04-20T00:13:14.584Z,11.65
2023-04-20T00:15:41.869Z,11.07
2023-04-20T00:18:09.103Z,10.45
2023-04-20T00:20:36.436Z,10.15
2023-04-20T00:23:04.041Z,8.18
2023-04-20T00:25:32.030Z,8.63
2023-04-20T00:27:59.823Z,8.50
2023-04-20T00:30:27.142Z,8.35
2023-04-20T00:32:54.434Z,9.18
2023-04-20T00:35:21.830Z,11.40
2023-04-20T00:37:49.093Z,9.02
2023-04-20T00:40:16.366Z,11.95
2023-04-20T00:42:43.638Z,10.65
2023-04-20T00:45:11.097Z,11.68
2023-04-20T00:47:39.181Z,11.77
2023-04-20T00:50:07.631Z,11.00
2023-04-20T00:52:36.086Z,10.63
2023-04-20T00:55:06.210Z,10.95
2023-04-20T00:57:33.709Z,11.55
2023-04-20T01:00:01.991Z,11.18
2023-04-20T01:02:29.461Z,9.90
2023-04-20T01:04:56.991Z,10.18
2023-04-20T01:07:24.302Z,9.82
2023-04-20T01:09:51.648Z,9.98
2023-04-20T01:12:18.915Z,9.82
2023-04-20T01:14:46.161Z,9.88
2023-04-20T01:17:15.510Z,10.07
2023-04-20T01:22:22.085Z,9.35
2023-04-20T01:24:49.398Z,10.57
2023-04-20T01:27:17.485Z,10.52
2023-04-20T01:29:45.656Z,10.07
2023-04-20T01:32:13.251Z,9.52
2023-04-20T01:34:41.506Z,10.02
2023-04-20T01:37:09.134Z,11.10
2023-04-20T01:39:40.454Z,9.13
2023-04-20T01:42:07.900Z,8.10
2023-04-20T01:44:35.173Z,8.98
2023-04-20T01:47:03.025Z,10.05
2023-04-20T01:49:30.570Z,10.07
2023-04-20T01:51:58.222Z,9.32
2023-04-20T01:54:25.567Z,9.05
2023-04-20T01:56:52.855Z,10.02
2023-04-20T01:59:20.201Z,9.27
2023-04-20T02:01:47.664Z,11.02
2023-04-20T02:04:15.067Z,10.68
2023-04-20T02:06:42.391Z,10.07
2023-04-20T02:09:10.251Z,10.85
2023-04-20T02:11:37.573Z,12.02
2023-04-20T02:14:06.695Z,10.57
2023-04-20T02:16:35.899Z,11.70
2023-04-20T02:19:03.514Z,11.25
2023-04-20T02:21:30.801Z,10.50
2023-04-20T02:23:58.287Z,11.68
2023-04-20T02:26:28.026Z,9.88
2023-04-20T02:28:55.350Z,10.18
2023-04-20T02:31:22.702Z,11.43
2023-04-20T02:33:50.339Z,10.45
2023-04-20T02:36:19.723Z,10.82
2023-04-20T02:38:46.977Z,10.27
2023-04-20T02:41:14.331Z,10.38
2023-04-20T02:43:42.038Z,8.85
2023-04-20T02:46:11.505Z,10.75
2023-04-20T02:48:38.842Z,10.25
2023-04-20T02:51:06.362Z,11.20
2023-04-20T02:53:39.358Z,10.57
2023-04-20T02:56:16.085Z,10.90
2023-04-20T02:58:48.716Z,10.55
2023-04-20T03:01:21.142Z,11.25
2023-04-20T03:03:51.567Z,12.57
2023-04-20T03:06:19.410Z,11.18
2023-04-20T03:08:53.262Z,12.10
2023-04-20T03:11:43.171Z,10.95
2023-04-20T03:14:13.916Z,9.98
2023-04-20T03:16:42.230Z,11.25
2023-04-20T03:19:11.062Z,12.18
2023-04-20T03:21:38.381Z,12.77
2023-04-20T03:24:07.769Z,12.98
2023-04-20T03:26:35.071Z,11.25
2023-04-20T03:29:17.785Z,12.38
2023-04-20T03:31:46.795Z,12.52
2023-04-20T03:34:15.014Z,11.27
2023-04-20T03:36:42.671Z,10.38
2023-04-20T03:39:10.176Z,10.20
2023-04-20T03:41:37.366Z,9.57
2023-04-20T03:44:04.971Z,9.02
2023-04-20T03:46:32.229Z,8.70
2023-04-20T03:48:59.637Z,9.52
2023-04-20T03:51:26.906Z,8.52
2023-04-20T03:53:54.201Z,8.10
2023-04-20T03:56:21.735Z,7.32
2023-04-20T03:58:50.572Z,7.57
2023-04-20T04:01:22.209Z,7.47
2023-04-20T04:03:51.093Z,8.25
2023-04-20T04:06:18.909Z,6.88
2023-04-20T04:08:46.303Z,7.25
2023-04-20T04:11:13.637Z,7.22
2023-04-20T04:13:41.060Z,7.97
2023-04-20T04:16:09.629Z,7.55
2023-04-20T04:18:37.121Z,6.90
2023-04-20T04:21:10.777Z,7.35
2023-04-20T04:23:43.110Z,6.63
2023-04-20T04:26:18.665Z,7.03
2023-04-20T04:28:46.322Z,7.28
2023-04-20T04:31:18.867Z,6.55
2023-04-20T04:33:46.921Z,7.72
2023-04-20T04:36:27.419Z,7.07
2023-04-20T04:38:57.285Z,6.78
2023-04-20T04:41:25.878Z,7.68
2023-04-20T04:43:56.591Z,7.03
2023-04-20T04:46:30.346Z,6.72
2023-04-20T04:49:01.414Z,6.45
2023-04-20T04:51:28.994Z,6.70
2023-04-20T04:53:56.333Z,7.00
2023-04-20T04:56:23.891Z,6.90
2023-04-20T04:58:51.293Z,6.32
2023-04-20T05:01:18.684Z,6.38
2023-04-20T05:03:46.355Z,7.13
2023-04-20T05:06:13.824Z,6.88
2023-04-20T05:08:41.072Z,6.20
2023-04-20T05:11:08.371Z,6.25
2023-04-20T05:13:35.814Z,7.00
2023-04-20T05:16:03.494Z,6.43
2023-04-20T05:18:30.870Z,6.82
2023-04-20T05:20:58.147Z,6.47
2023-04-20T05:23:25.546Z,7.03
2023-04-20T05:25:52.869Z,5.95
2023-04-20T05:28:23.633Z,7.20
2023-04-20T05:30:50.945Z,6.50
2023-04-20T05:33:18.173Z,6.70
2023-04-20T05:35:45.896Z,7.65
2023-04-20T05:38:13.373Z,7.20
2023-04-20T05:40:41.000Z,8.15
2023-04-20T05:43:08.173Z,7.20
2023-04-20T05:45:35.776Z,7.57
2023-04-20T05:48:03.169Z,8.40
2023-04-20T05:50:30.946Z,7.82
2023-04-20T05:52:58.218Z,7.72
2023-04-20T05:55:26.012Z,9.30
2023-04-20T05:57:53.430Z,7.22
2023-04-20T06:00:22.551Z,7.82
2023-04-20T06:02:52.137Z,8.13
2023-04-20T06:05:20.642Z,7.72
2023-04-20T06:07:50.792Z,7.35
2023-04-20T06:10:18.104Z,7.20
2023-04-20T06:12:45.426Z,9.10
2023-04-20T06:15:12.760Z,7.00
2023-04-20T06:17:41.356Z,7.53
2023-04-20T06:20:10.958Z,7.57
2023-04-20T06:22:45.812Z,7.05
2023-04-20T06:25:14.261Z,7.45
2023-04-20T06:27:42.190Z,7.22
2023-04-20T06:30:10.339Z,7.05
2023-04-20T06:32:38.310Z,6.82
2023-04-20T06:35:07.339Z,7.18
2023-04-20T06:37:36.226Z,6.65
2023-04-20T06:40:08.842Z,6.80
2023-04-20T06:42:37.520Z,7.05
2023-04-20T06:45:06.796Z,7.85
2023-04-20T06:47:34.512Z,6.25
2023-04-20T06:50:03.086Z,5.90
2023-04-20T06:52:31.753Z,6.80
2023-04-20T06:55:02.718Z,5.68
2023-04-20T06:57:30.072Z,5.90
2023-04-20T06:59:59.559Z,6.07
2023-04-20T07:02:27.376Z,6.07
2023-04-20T07:05:01.339Z,5.72
2023-04-20T07:07:28.580Z,6.68
2023-04-20T07:09:55.880Z,6.97
2023-04-20T07:12:23.776Z,6.57
2023-04-20T07:14:51.202Z,6.63
2023-04-20T07:17:18.411Z,6.00
2023-04-20T07:19:45.845Z,6.82
2023-04-20T07:22:13.088Z,6.80
2023-04-20T07:24:40.565Z,8.15
2023-04-20T07:27:08.899Z,6.03
2023-04-20T07:29:36.544Z,6.88
2023-04-20T07:32:04.004Z,7.40
2023-04-20T07:34:31.611Z,6.78
2023-04-20T07:36:58.886Z,6.97
2023-04-20T07:39:28.992Z,6.47
2023-04-20T07:41:57.454Z,6.32
2023-04-20T07:44:24.760Z,5.35
2023-04-20T07:46:51.974Z,6.20
2023-04-20T07:49:19.546Z,5.07
2023-04-20T07:51:47.096Z,5.75
2023-04-20T07:54:14.356Z,5.78
2023-04-20T07:56:41.989Z,5.50
2023-04-20T07:59:09.376Z,5.97
2023-04-20T08:01:37.388Z,5.07
2023-04-20T08:04:05.184Z,6.20
2023-04-20T08:06:33.332Z,6.00
2023-04-20T08:09:00.694Z,5.07
2023-04-20T08:11:28.103Z,6.22
2023-04-20T08:13:57.201Z,5.13
2023-04-20T08:16:26.030Z,5.22
2023-04-20T08:18:53.331Z,5.50
2023-04-20T08:21:25.422Z,5.18
2023-04-20T08:23:53.725Z,4.93
2023-04-20T08:26:21.172Z,5.93
2023-04-20T08:28:48.469Z,6.03
2023-04-20T08:31:15.809Z,5.18
2023-04-20T08:33:43.140Z,6.07
2023-04-20T08:36:10.867Z,6.68
2023-04-20T08:38:38.212Z,6.20
2023-04-20T08:41:05.758Z,6.78
2023-04-20T08:43:33.012Z,5.85
2023-04-20T08:46:03.231Z,5.85
2023-04-20T08:48:36.710Z,5.70
2023-04-20T08:51:05.388Z,6.43
2023-04-20T08:53:33.830Z,6.10
2023-04-20T08:56:01.308Z,5.82
2023-04-20T08:58:33.118Z,5.95
2023-04-20T09:01:01.679Z,5.05
2023-04-20T09:03:36.458Z,5.68
2023-04-20T09:06:15.125Z,5.38
2023-04-20T09:08:43.700Z,5.28
2023-04-20T09:11:28.183Z,5.50
2023-04-20T09:14:05.814Z,5.45
2023-04-20T09:16:37.468Z,6.10
2023-04-20T09:19:04.697Z,6.30
2023-04-20T09:21:33.262Z,5.55
2023-04-20T09:24:08.809Z,5.65
2023-04-20T09:26:36.749Z,5.90
2023-04-20T09:29:04.820Z,6.13
2023-04-20T09:31:32.104Z,5.80
2023-04-20T09:34:01.927Z,5.85
2023-04-20T09:36:50.731Z,5.65
2023-04-20T09:39:20.379Z,6.00
2023-04-20T09:41:48.452Z,5.15
2023-04-20T09:44:17.184Z,6.18
2023-04-20T09:46:45.568Z,5.93
2023-04-20T09:49:15.085Z,5.55
2023-04-20T09:51:45.661Z,5.60
2023-04-20T09:54:14.452Z,5.32
2023-04-20T09:56:42.032Z,5.63
2023-04-20T09:59:09.498Z,5.72
2023-04-20T10:01:38.564Z,5.32
2023-04-20T10:04:11.464Z,4.82
2023-04-20T10:06:39.336Z,5.30
2023-04-20T10:09:09.682Z,5.90
2023-04-20T10:11:52.683Z,5.80
2023-04-20T10:14:26.621Z,5.00
2023-04-20T10:17:00.042Z,5.13
2023-04-20T10:19:46.233Z,6.20
2023-04-20T10:22:33.954Z,5.65
2023-04-20T10:25:03.070Z,5.57
2023-04-20T10:27:32.528Z,6.28
2023-04-20T10:30:10.674Z,5.30
2023-04-20T10:32:38.000Z,5.45
2023-04-20T10:35:11.416Z,4.70
2023-04-20T10:37:49.190Z,4.97
2023-04-20T10:40:16.554Z,5.18
2023-04-20T10:42:45.139Z,5.22
2023-04-20T10:45:13.474Z,5.43
2023-04-20T10:47:45.579Z,5.28
2023-04-20T10:50:18.456Z,4.38
2023-04-20T10:52:45.765Z,5.57
2023-04-20T10:55:26.866Z,5.15
2023-04-20T10:57:54.439Z,5.18
2023-04-20T11:00:24.451Z,5.57
2023-04-20T11:02:53.544Z,4.88
2023-04-20T11:05:22.737Z,5.07
2023-04-20T11:07:58.844Z,5.53
2023-04-20T11:10:39.462Z,5.07
2023-04-20T11:13:06.786Z,5.13
2023-04-20T11:15:36.005Z,5.70
2023-04-20T11:18:12.059Z,4.80
2023-04-20T11:20:53.639Z,4.78
2023-04-20T11:23:21.727Z,5.90
2023-04-20T11:25:56.848Z,5.65
2023-04-20T11:28:26.275Z,5.40
2023-04-20T11:30:53.595Z,5.60
2023-04-20T11:33:31.845Z,5.60
2023-04-20T11:35:59.744Z,4.88
2023-04-20T11:38:31.794Z,5.15
2023-04-20T11:41:04.926Z,5.80
2023-04-20T11:43:32.781Z,5.13
2023-04-20T11:46:03.304Z,5.60
2023-04-20T11:48:31.877Z,4.85
2023-04-20T11:50:59.303Z,5.72
2023-04-20T11:53:27.080Z,5.28
2023-04-20T11:55:54.378Z,4.63
2023-04-20T11:58:21.664Z,4.78
2023-04-20T12:00:48.892Z,4.57
2023-04-20T12:03:16.239Z,5.70
2023-04-20T12:05:43.682Z,5.10
2023-04-20T12:08:10.944Z,6.07
2023-04-20T12:10:38.204Z,5.22
2023-04-20T12:13:05.375Z,5.68
2023-04-20T12:15:32.738Z,6.07
2023-04-20T12:18:00.066Z,6.07
2023-04-20T12:20:27.331Z,5.70
2023-04-20T12:22:56.057Z,6.43
2023-04-20T12:25:24.454Z,6.07
2023-04-20T12:27:51.615Z,6.70
2023-04-20T12:30:18.854Z,6.90
2023-04-20T12:32:46.147Z,6.95
2023-04-20T12:35:13.481Z,6.68
2023-04-20T12:37:40.653Z,6.55
2023-04-20T12:40:08.951Z,8.10
2023-04-20T12:42:36.232Z,7.53
2023-04-20T12:45:04.078Z,6.88
2023-04-20T12:47:31.747Z,6.90
2023-04-20T12:49:58.994Z,8.60
2023-04-20T12:52:26.272Z,10.85
2023-04-20T12:54:53.514Z,7.75
2023-04-20T12:57:20.792Z,8.60
2023-04-20T12:59:50.751Z,9.25
2023-04-20T13:02:18.535Z,10.50
2023-04-20T13:04:47.171Z,9.98
2023-04-20T13:07:14.401Z,9.73
2023-04-20T13:09:41.582Z,10.75
2023-04-20T13:12:08.836Z,8.38
2023-04-20T13:14:36.172Z,9.02
2023-04-20T13:17:03.458Z,10.40
2023-04-20T13:19:31.562Z,10.13
2023-04-20T13:21:59.121Z,9.25
2023-04-20T13:24:26.280Z,8.15
2023-04-20T13:26:57.973Z,9.32
2023-04-20T14:13:25.666Z,9.18
2023-04-20T14:15:54.704Z,8.20
2023-04-20T14:18:21.946Z,8.07
2023-04-20T14:20:52.635Z,9.05
2023-04-20T14:23:20.117Z,9.63
2023-04-20T14:25:47.336Z,8.68
2023-04-20T14:28:17.045Z,9.52
2023-04-20T14:30:45.993Z,9.57
2023-04-20T14:33:13.544Z,9.13
2023-04-20T14:35:41.134Z,8.93
2023-04-20T14:38:08.351Z,7.90
2023-04-20T14:40:35.656Z,9.02
2023-04-20T14:43:02.818Z,8.95
2023-04-20T14:45:30.079Z,8.75
2023-04-20T14:47:57.621Z,9.07
2023-04-20T14:50:28.854Z,8.63
2023-04-20T14:52:56.512Z,8.43
2023-04-20T14:55:26.245Z,8.65
2023-04-20T14:57:56.019Z,8.27
2023-04-20T15:00:24.836Z,8.45
2023-04-20T15:02:53.527Z,9.05
2023-04-20T15:05:21.041Z,9.05
2023-04-20T15:07:51.066Z,9.05
2023-04-20T15:10:20.282Z,8.90
2023-04-20T15:12:48.409Z,7.68
2023-04-20T15:15:16.927Z,8.93
2023-04-20T15:17:45.613Z,8.32
2023-04-20T15:20:15.734Z,8.55
2023-04-20T15:22:43.072Z,9.63
2023-04-20T15:25:10.684Z,8.35
2023-04-20T15:27:38.008Z,7.72
2023-04-20T15:30:06.531Z,8.45
2023-04-20T15:32:36.751Z,8.15
2023-04-20T15:35:04.234Z,8.90
2023-04-20T15:37:31.691Z,8.90
2023-04-20T15:39:59.588Z,8.50
2023-04-20T15:42:27.904Z,7.70
2023-04-20T15:44:55.236Z,7.30
2023-04-20T15:47:22.547Z,7.90
2023-04-20T15:49:49.824Z,7.78
2023-04-20T15:52:17.204Z,9.45
2023-04-20T15:54:47.604Z,9.05
2023-04-20T15:57:14.793Z,8.15
2023-04-20T15:59:42.041Z,8.45
2023-04-20T16:02:09.498Z,8.68
2023-04-20T16:04:37.099Z,9.63
2023-04-20T16:07:04.464Z,8.65
2023-04-20T16:09:32.127Z,8.90
2023-04-20T16:11:59.894Z,9.45
2023-04-20T16:14:27.261Z,8.80
2023-04-20T16:16:54.986Z,9.65
2023-04-20T16:19:22.269Z,9.55
2023-04-20T16:21:49.454Z,9.20
2023-04-20T16:24:16.866Z,10.60
2023-04-20T16:26:44.562Z,8.43
2023-04-20T16:29:11.837Z,9.63
2023-04-20T16:31:39.817Z,10.30
2023-04-20T16:34:07.844Z,8.82
2023-04-20T16:36:35.612Z,8.73
2023-04-20T16:39:06.189Z,8.98
2023-04-20T16:41:34.094Z,8.52
2023-04-20T16:44:02.052Z,9.38
2023-04-20T16:46:29.461Z,9.00
2023-04-20T16:48:56.853Z,9.68
2023-04-20T16:51:24.309Z,10.10
2023-04-20T16:53:52.152Z,9.10
2023-04-20T16:56:19.402Z,8.02
2023-04-20T16:58:46.590Z,7.78
2023-04-20T17:01:14.260Z,7.50
2023-04-20T17:03:41.787Z,9.90
2023-04-20T17:06:10.345Z,9.45
2023-04-20T17:08:40.633Z,10.25
2023-04-20T17:11:08.173Z,9.57
2023-04-20T17:13:35.628Z,9.45
2023-04-20T17:16:03.037Z,9.98
2023-04-20T17:18:30.944Z,7.68
2023-04-20T17:20:58.945Z,9.07
2023-04-20T17:23:26.768Z,10.57
2023-04-20T17:25:55.116Z,9.40
2023-04-20T17:28:22.450Z,9.23
2023-04-20T17:30:49.752Z,9.50
2023-04-20T17:33:17.075Z,9.60
2023-04-20T17:35:46.143Z,9.93
2023-04-20T17:38:13.378Z,9.52
2023-04-20T17:40:41.093Z,7.75
2023-04-20T17:43:08.462Z,9.23
2023-04-20T17:45:37.570Z,8.65
2023-04-20T17:48:06.138Z,9.30
2023-04-20T17:50:34.900Z,8.93
2023-04-20T17:53:07.240Z,8.82
2023-04-20T17:55:35.804Z,7.97
2023-04-20T17:58:03.123Z,9.25
2023-04-20T18:00:30.372Z,7.35
2023-04-20T18:02:59.931Z,8.82
2023-04-20T18:05:27.570Z,7.97
2023-04-20T18:07:54.816Z,7.75
2023-04-20T18:10:22.120Z,9.43
2023-04-20T18:12:49.552Z,8.57
2023-04-20T18:15:16.899Z,9.15
2023-04-20T18:17:44.864Z,8.75
2023-04-20T18:20:12.701Z,7.50
2023-04-20T18:22:40.083Z,10.05
2023-04-20T18:25:07.464Z,9.07
2023-04-20T18:27:34.718Z,10.73
2023-04-20T18:30:02.087Z,9.27
2023-04-20T18:32:31.519Z,9.57
2023-04-20T18:35:00.740Z,10.07
2023-04-20T18:37:28.124Z,10.02
2023-04-20T18:39:55.683Z,9.85
2023-04-20T18:42:23.172Z,10.10
2023-04-20T18:44:51.800Z,9.98
2023-04-20T18:47:21.166Z,9.82
2023-04-20T18:49:48.531Z,9.82
2023-04-20T18:52:16.073Z,10.52
2023-04-20T18:54:43.361Z,9.23
2023-04-20T18:57:10.981Z,9.20
2023-04-20T18:59:38.214Z,9.63
2023-04-20T19:02:05.639Z,9.77
2023-04-20T19:04:35.672Z,11.15
2023-04-20T19:07:03.143Z,9.32
2023-04-20T19:09:30.433Z,10.60
2023-04-20T19:11:58.924Z,10.43
2023-04-20T19:14:26.221Z,10.25
2023-04-20T19:16:53.709Z,8.45
2023-04-20T19:19:21.113Z,8.85
2023-04-20T19:21:48.885Z,11.13
2023-04-20T19:24:16.466Z,10.88
2023-04-20T19:26:44.546Z,11.13
2023-04-20T19:29:12.973Z,9.95
2023-04-20T19:31:42.576Z,9.88
2023-04-20T19:34:11.172Z,9.82
2023-04-20T19:36:38.537Z,10.60
2023-04-20T19:39:07.845Z,11.23
2023-04-20T19:41:35.485Z,11.10
2023-04-20T19:44:06.696Z,10.80
2023-04-20T19:46:34.348Z,9.95
2023-04-20T19:49:01.828Z,11.10
2023-04-20T19:51:29.803Z,9.93
2023-04-20T19:53:58.892Z,9.35
2023-04-20T19:56:26.532Z,9.88
2023-04-20T19:58:53.806Z,8.68
2023-04-20T20:01:21.204Z,10.45
2023-04-20T20:03:48.608Z,9.15
2023-04-20T20:06:16.261Z,9.18
2023-04-20T20:08:43.565Z,8.73
2023-04-20T20:11:10.941Z,11.45
2023-04-20T20:13:38.291Z,11.50
2023-04-20T20:16:05.662Z,11.50
2023-04-20T20:18:33.086Z,10.93
2023-04-20T20:21:00.296Z,10.57
2023-04-20T20:23:27.640Z,11.15
2023-04-20T20:25:54.937Z,11.52
2023-04-20T20:28:22.227Z,11.32
2023-04-20T20:30:49.408Z,11.00
2023-04-20T20:33:16.737Z,10.07
2023-04-20T20:35:44.729Z,11.48
2023-04-20T20:38:12.108Z,11.18
2023-04-20T20:40:40.537Z,9.82
2023-04-20T20:43:09.007Z,10.18
2023-04-20T20:45:37.636Z,9.73
2023-04-20T20:48:05.113Z,9.32
2023-04-20T20:50:32.451Z,8.98
2023-04-20T20:52:59.919Z,11.48
2023-04-20T20:55:27.260Z,10.55
2023-04-20T20:57:54.569Z,10.13
2023-04-20T21:00:21.856Z,11.35
2023-04-20T21:02:49.967Z,11.25
2023-04-20T21:05:17.370Z,10.45
2023-04-20T21:07:44.967Z,12.50
2023-04-20T21:10:12.229Z,10.93
2023-04-20T21:12:39.487Z,11.00
2023-04-20T21:15:07.769Z,10.93
2023-04-20T21:17:35.200Z,9.68
2023-04-20T21:20:05.946Z,11.43
2023-04-20T21:22:33.338Z,11.10
2023-04-20T21:25:00.728Z,11.82
2023-04-20T21:27:28.417Z,10.07
2023-04-20T21:29:55.702Z,10.75
2023-04-20T21:32:24.261Z,9.13
2023-04-20T21:34:52.522Z,10.73
2023-04-20T21:37:19.862Z,11.35
2023-04-20T21:39:47.119Z,11.55
2023-04-20T21:42:14.381Z,10.50
2023-04-20T21:44:42.203Z,12.40
2023-04-20T21:47:09.722Z,12.65
2023-04-20T21:49:37.092Z,11.98
2023-04-20T21:52:04.637Z,12.57
2023-04-20T21:54:34.084Z,12.38
2023-04-20T21:57:02.211Z,11.90
2023-04-20T21:59:29.483Z,10.80
2023-04-20T22:01:56.836Z,11.73
2023-04-20T22:04:26.315Z,10.60
2023-04-20T22:06:56.617Z,10.00
2023-04-20T22:09:24.125Z,12.02
2023-04-20T22:11:51.517Z,9.30
2023-04-20T22:14:18.758Z,11.25
2023-04-20T22:16:46.519Z,12.13
2023-04-20T22:19:13.711Z,11.48
2023-04-20T22:21:41.050Z,11.45
2023-04-20T22:24:08.387Z,12.88
2023-04-20T22:26:36.020Z,12.00
2023-04-20T22:29:03.308Z,12.85
2023-04-20T22:31:30.677Z,11.25
2023-04-20T22:33:57.976Z,12.65
2023-04-20T22:36:25.182Z,12.38
2023-04-20T22:38:52.473Z,11.55
2023-04-20T22:41:19.712Z,12.20
2023-04-20T22:43:46.937Z,13.23
2023-04-20T22:46:14.204Z,13.30
2023-04-20T22:48:42.091Z,12.57
2023-04-20T22:51:09.301Z,13.07
2023-04-20T22:53:36.588Z,12.82
2023-04-20T22:56:05.626Z,12.52
2023-04-20T22:58:33.223Z,12.25
2023-04-20T23:01:00.639Z,10.00
2023-04-20T23:03:28.194Z,10.95
2023-04-20T23:05:57.852Z,13.48
2023-04-20T23:08:26.059Z,12.43
2023-04-20T23:10:56.050Z,14.02
2023-04-20T23:13:26.705Z,13.15
2023-04-20T23:15:54.064Z,13.30
2023-04-20T23:18:21.599Z,12.57
2023-04-20T23:20:48.925Z,12.05
2023-04-20T23:23:16.110Z,13.05
2023-04-20T23:25:43.318Z,11.85
2023-04-20T23:28:10.508Z,13.45
2023-04-20T23:30:37.799Z,13.18
2023-04-20T23:33:05.074Z,12.95
2023-04-20T23:35:32.810Z,12.20
2023-04-20T23:38:00.246Z,10.48
2023-04-20T23:40:27.469Z,13.48
2023-04-20T23:42:55.585Z,13.95
2023-04-20T23:45:23.685Z,13.85
2023-04-20T23:47:50.981Z,13.38
2023-04-20T23:50:18.504Z,13.30
2023-04-20T23:52:45.836Z,13.85
2023-04-20T23:55:13.057Z,14.52
2023-04-20T23:57:40.386Z,14.15
